Time;durP1;ratioP1;P1;durP2;ratioP2;P2;SDS_P1;SDS_P2;PMS_P1;PMS_P2;Temp;Humidity;BMP_temperature;BMP_pressure;BME280_temperature;BME280_humidity;BME280_pressure;Samples;Min_cycle;Max_cycle;Signal;HPM_P1;HPM_P2
2022/10/10 00:01:57;;;;;;;14.75;7.10;;;;;;;5.71;100.00;101406.09;5267181;28;20596;-70
2022/10/10 00:04:27;;;;;;;12.27;6.60;;;;;;;5.74;100.00;101413.03;5265669;28;20516;-71
2022/10/10 00:06:58;;;;;;;18.98;7.30;;;;;;;5.68;100.00;101414.34;5265787;28;20023;-71
2022/10/10 00:09:28;;;;;;;11.68;6.75;;;;;;;5.65;100.00;101410.09;5259127;28;20016;-71
2022/10/10 00:11:58;;;;;;;14.63;6.88;;;;;;;5.59;100.00;101413.25;5269416;28;20029;-71
2022/10/10 00:14:29;;;;;;;15.98;6.80;;;;;;;5.56;100.00;101407.31;5283194;28;20038;-70
2022/10/10 00:16:59;;;;;;;17.73;7.32;;;;;;;5.56;100.00;101409.97;5271563;28;20107;-70
2022/10/10 00:19:30;;;;;;;14.82;6.78;;;;;;;5.56;100.00;101409.97;5269263;28;20149;-70
2022/10/10 00:22:00;;;;;;;15.80;8.23;;;;;;;5.59;100.00;101407.94;5273173;28;20055;-71
2022/10/10 00:24:31;;;;;;;16.23;8.13;;;;;;;5.58;100.00;101408.06;5269763;28;20488;-70
2022/10/10 00:27:01;;;;;;;13.75;7.15;;;;;;;5.57;100.00;101403.69;5274609;28;20099;-70
2022/10/10 00:29:31;;;;;;;13.90;7.47;;;;;;;5.54;100.00;101406.59;5277597;28;20100;-70
2022/10/10 00:32:02;;;;;;;18.77;7.80;;;;;;;5.50;100.00;101410.47;5284791;28;20055;-70
2022/10/10 00:34:32;;;;;;;17.50;7.82;;;;;;;5.49;100.00;101408.78;5266250;28;20028;-69
2022/10/10 00:37:03;;;;;;;12.73;7.47;;;;;;;5.44;100.00;101399.31;5263461;28;20024;-71
2022/10/10 00:39:33;;;;;;;20.58;7.78;;;;;;;5.40;100.00;101403.19;5256186;28;20028;-70
2022/10/10 00:42:04;;;;;;;12.85;7.40;;;;;;;5.38;100.00;101404.28;5246022;28;20032;-70
2022/10/10 00:44:36;;;;;;;20.02;7.85;;;;;;;5.32;100.00;101396.75;5271588;28;20079;-69
2022/10/10 00:47:06;;;;;;;14.95;7.03;;;;;;;5.28;100.00;101398.84;5270306;28;20016;-70
2022/10/10 00:49:41;;;;;;;21.00;8.98;;;;;;;5.24;100.00;101394.72;5273410;28;20077;-70
2022/10/10 00:52:11;;;;;;;11.80;6.60;;;;;;;5.20;100.00;101398.56;5282296;28;20104;-70
2022/10/10 00:54:42;;;;;;;11.60;7.47;;;;;;;5.18;100.00;101400.50;5283517;28;20055;-69
2022/10/10 00:57:13;;;;;;;14.95;7.88;;;;;;;5.14;100.00;101394.56;5263291;28;20048;-70
2022/10/10 00:59:45;;;;;;;18.08;7.93;;;;;;;5.12;100.00;101400.94;5276476;28;20079;-70
2022/10/10 01:02:15;;;;;;;17.83;7.47;;;;;;;5.07;100.00;101392.47;5266518;28;20031;-70
2022/10/10 01:04:46;;;;;;;14.45;6.88;;;;;;;5.04;100.00;101390.06;5258415;28;20024;-70
2022/10/10 01:07:23;;;;;;;16.40;7.88;;;;;;;5.02;100.00;101392.84;5274960;28;20042;-70
2022/10/10 01:09:57;;;;;;;21.95;8.27;;;;;;;5.00;100.00;101392.09;5261652;28;20553;-70
2022/10/10 01:12:45;;;;;;;16.60;6.90;;;;;;;4.97;100.00;101388.81;5262937;28;20024;-71
2022/10/10 01:15:42;;;;;;;16.80;7.95;;;;;;;4.97;100.00;101387.03;5249208;28;20055;-70
2022/10/10 01:18:18;;;;;;;14.18;7.15;;;;;;;4.93;100.00;101389.09;5281608;28;20055;-71
2022/10/10 01:20:56;;;;;;;17.25;6.93;;;;;;;4.93;100.00;101390.91;5270789;28;20031;-71
2022/10/10 01:24:13;;;;;;;14.23;7.65;;;;;;;4.88;100.00;101385.09;5258231;28;20384;-70
2022/10/10 01:27:06;;;;;;;11.77;5.80;;;;;;;4.83;100.00;101385.44;5250858;28;20122;-70
2022/10/10 01:30:03;;;;;;;12.85;6.00;;;;;;;4.75;100.00;101382.50;5264963;28;20054;-70
2022/10/10 01:32:50;;;;;;;14.43;6.80;;;;;;;4.73;100.00;101381.75;5269553;28;20080;-71
2022/10/10 01:35:53;;;;;;;11.95;5.82;;;;;;;4.68;100.00;101378.59;5276768;28;20024;-71
2022/10/10 01:38:30;;;;;;;10.15;5.45;;;;;;;4.63;100.00;101386.09;5267531;28;20031;-71
2022/10/10 01:41:13;;;;;;;10.57;5.53;;;;;;;4.59;100.00;101382.78;5253605;27;20023;-70
2022/10/10 01:43:44;;;;;;;11.48;6.25;;;;;;;4.55;100.00;101375.16;5281804;28;20089;-70
2022/10/10 01:46:17;;;;;;;12.45;5.82;;;;;;;4.53;100.00;101382.41;5287430;28;20403;-70
2022/10/10 01:48:52;;;;;;;11.68;6.07;;;;;;;4.49;100.00;101380.94;5271048;28;20020;-70
2022/10/10 01:51:52;;;;;;;11.55;6.20;;;;;;;4.48;100.00;101379.25;5278803;28;20027;-70
2022/10/10 01:54:49;;;;;;;12.70;5.80;;;;;;;4.47;100.00;101369.56;5254283;28;20334;-71
2022/10/10 01:57:32;;;;;;;12.77;5.90;;;;;;;4.48;100.00;101365.97;5287318;28;20055;-70
2022/10/10 02:00:08;;;;;;;14.63;6.95;;;;;;;4.49;100.00;101365.00;5283287;28;20023;-70
2022/10/10 02:03:08;;;;;;;15.88;7.57;;;;;;;4.50;100.00;101366.69;5260657;28;20032;-70
2022/10/10 02:05:46;;;;;;;17.00;6.35;;;;;;;4.48;100.00;101360.66;5252985;28;20393;-70
2022/10/10 02:08:27;;;;;;;12.13;7.05;;;;;;;4.45;100.00;101364.38;5282836;28;20023;-70
2022/10/10 02:11:07;;;;;;;11.88;5.65;;;;;;;4.41;100.00;101361.09;5257305;28;20043;-70
2022/10/10 02:14:10;;;;;;;17.55;6.63;;;;;;;4.39;100.00;101360.38;5265977;28;20062;-70
2022/10/10 02:16:45;;;;;;;16.05;7.03;;;;;;;4.37;100.00;101358.81;5285016;28;20024;-71
2022/10/10 02:19:18;;;;;;;16.25;7.78;;;;;;;4.37;100.00;101359.63;5286652;28;20546;-71
2022/10/10 02:21:51;;;;;;;14.52;6.95;;;;;;;4.35;100.00;101352.72;5279422;28;20035;-70
2022/10/10 02:24:23;;;;;;;17.23;7.90;;;;;;;4.34;100.00;101356.34;5280596;28;20084;-71
2022/10/10 02:27:10;;;;;;;18.58;6.82;;;;;;;4.32;100.00;101353.81;5274232;28;20284;-69
2022/10/10 02:29:42;;;;;;;12.85;6.75;;;;;;;4.30;100.00;101352.22;5283723;28;20030;-70
2022/10/10 02:32:35;;;;;;;15.20;7.32;;;;;;;4.29;100.00;101351.38;5287017;28;20031;-70
2022/10/10 02:35:17;;;;;;;8.98;5.75;;;;;;;4.26;100.00;101342.78;5254417;28;20036;-70
2022/10/10 02:37:48;;;;;;;12.80;6.45;;;;;;;4.24;100.00;101342.91;5265304;28;20035;-70
2022/10/10 02:40:25;;;;;;;11.70;5.53;;;;;;;4.22;100.00;101339.53;5251154;28;20258;-70
2022/10/10 02:42:59;;;;;;;8.88;5.32;;;;;;;4.20;100.00;101338.78;5253229;28;20058;-71
2022/10/10 02:45:32;;;;;;;10.98;5.20;;;;;;;4.19;100.00;101338.91;5280192;28;20111;-70
2022/10/10 02:48:02;;;;;;;8.48;4.13;;;;;;;4.15;100.00;101333.81;5284983;28;20027;-70
2022/10/10 02:50:33;;;;;;;8.48;4.38;;;;;;;4.12;100.00;101327.88;5281758;28;20389;-70
2022/10/10 02:53:04;;;;;;;11.38;6.00;;;;;;;4.10;100.00;101332.44;5278088;28;20027;-69
2022/10/10 02:55:34;;;;;;;9.98;5.57;;;;;;;4.08;100.00;101329.06;5271794;28;20022;-70
2022/10/10 02:58:05;;;;;;;11.20;5.85;;;;;;;4.06;100.00;101326.50;5273507;28;20028;-70
2022/10/10 03:00:35;;;;;;;9.88;5.10;;;;;;;4.05;100.00;101329.28;5266408;28;20024;-70
2022/10/10 03:03:06;;;;;;;7.10;4.57;;;;;;;4.05;100.00;101329.28;5264796;28;20066;-70
2022/10/10 03:05:36;;;;;;;9.18;5.00;;;;;;;4.05;100.00;101330.13;5287048;28;20019;-70
2022/10/10 03:08:06;;;;;;;11.10;5.75;;;;;;;4.06;100.00;101321.19;5284467;28;20026;-70
2022/10/10 03:10:37;;;;;;;10.05;4.75;;;;;;;4.07;100.00;101322.06;5276179;28;20481;-70
2022/10/10 03:13:07;;;;;;;11.88;5.35;;;;;;;4.07;100.00;101316.75;5273763;27;20366;-70
2022/10/10 03:15:38;;;;;;;12.85;6.13;;;;;;;4.05;100.00;101318.66;5286988;27;20024;-70
2022/10/10 03:18:08;;;;;;;10.20;5.80;;;;;;;4.03;100.00;101315.28;5287209;28;20084;-70
2022/10/10 03:20:39;;;;;;;8.60;5.63;;;;;;;4.03;100.00;101312.63;5287658;28;20024;-69
2022/10/10 03:23:10;;;;;;;11.05;5.22;;;;;;;4.03;100.00;101320.59;5287522;28;20024;-70
2022/10/10 03:25:42;;;;;;;9.95;4.50;;;;;;;4.02;100.00;101319.75;5273496;28;20034;-70
2022/10/10 03:28:12;;;;;;;12.50;5.93;;;;;;;4.07;100.00;101320.25;5259113;28;20031;-70
2022/10/10 03:30:43;;;;;;;9.93;5.90;;;;;;;4.05;100.00;101316.00;5265668;28;20024;-70
2022/10/10 03:33:13;;;;;;;9.30;5.13;;;;;;;4.04;100.00;101320.47;5287290;28;20054;-70
2022/10/10 03:35:44;;;;;;;13.25;5.60;;;;;;;4.02;100.00;101322.41;5273757;28;20023;-70
2022/10/10 03:38:15;;;;;;;10.38;5.75;;;;;;;4.01;100.00;101318.03;5274962;28;20522;-70
2022/10/10 03:40:45;;;;;;;10.10;5.93;;;;;;;4.01;100.00;101317.19;5253424;28;20035;-70
2022/10/10 03:43:16;;;;;;;11.50;6.07;;;;;;;4.02;100.00;101314.44;5256677;28;20028;-71
2022/10/10 03:45:49;;;;;;;8.93;5.10;;;;;;;4.04;100.00;101316.97;5265349;28;20032;-72
2022/10/10 03:48:19;;;;;;;13.93;6.43;;;;;;;4.07;100.00;101328.22;5278349;28;20023;-71
2022/10/10 03:50:50;;;;;;;13.88;6.50;;;;;;;4.10;100.00;101322.66;5266338;28;20115;-71
2022/10/10 03:53:20;;;;;;;13.45;5.75;;;;;;;4.09;100.00;101317.47;5265779;28;20373;-71
2022/10/10 03:55:52;;;;;;;11.68;6.03;;;;;;;4.08;100.00;101315.78;5265102;28;20035;-71
2022/10/10 03:58:22;;;;;;;12.75;6.30;;;;;;;4.06;100.00;101320.34;5279504;28;20030;-71
2022/10/10 04:00:55;;;;;;;12.10;5.78;;;;;;;4.01;100.00;101318.03;5274402;28;20469;-71
2022/10/10 04:03:26;;;;;;;11.30;5.82;;;;;;;4.00;100.00;101319.00;5265293;28;20056;-71
2022/10/10 04:05:57;;;;;;;15.68;6.75;;;;;;;3.98;100.00;101307.66;5276081;28;20366;-72
2022/10/10 04:08:29;;;;;;;12.65;6.60;;;;;;;3.96;100.00;101314.88;5285937;28;20024;-71
2022/10/10 04:10:59;;;;;;;13.15;6.40;;;;;;;3.94;100.00;101313.28;5269928;28;20024;-71
2022/10/10 04:13:30;;;;;;;13.18;6.13;;;;;;;3.96;100.00;101314.03;5279733;28;20030;-71
2022/10/10 04:16:00;;;;;;;11.23;6.15;;;;;;;3.95;100.00;101315.84;5278892;28;20055;-71
2022/10/10 04:18:31;;;;;;;14.95;6.13;;;;;;;3.93;100.00;101319.56;5286334;28;20106;-71
2022/10/10 04:21:03;;;;;;;11.95;6.18;;;;;;;3.91;100.00;101324.97;5286468;28;20023;-71
2022/10/10 04:23:33;;;;;;;13.73;6.20;;;;;;;3.93;100.00;101320.41;5286692;28;20025;-71
2022/10/10 04:26:04;;;;;;;20.23;7.03;;;;;;;3.97;100.00;101313.09;5269170;28;20061;-71
2022/10/10 04:28:35;;;;;;;11.10;5.95;;;;;;;3.98;100.00;101320.09;5258123;28;20361;-70
2022/10/10 04:31:05;;;;;;;14.48;6.28;;;;;;;3.98;100.00;101317.44;5282415;28;20024;-71
2022/10/10 04:33:36;;;;;;;12.35;6.03;;;;;;;3.95;100.00;101320.28;5286482;28;20026;-71
2022/10/10 04:36:07;;;;;;;15.40;6.22;;;;;;;3.93;100.00;101312.44;5271829;28;20019;-70
2022/10/10 04:38:37;;;;;;;16.50;7.18;;;;;;;3.96;100.00;101314.88;5273151;28;20089;-71
2022/10/10 04:41:07;;;;;;;10.68;6.00;;;;;;;4.04;100.00;101315.16;5246872;28;20031;-71
2022/10/10 04:43:38;;;;;;;10.95;6.03;;;;;;;4.09;100.00;101318.31;5258557;28;20050;-71
2022/10/10 04:46:08;;;;;;;17.20;6.78;;;;;;;4.12;100.00;101325.22;5273100;28;20164;-70
2022/10/10 04:48:39;;;;;;;16.42;7.00;;;;;;;4.10;100.00;101320.00;5270138;28;20124;-70
2022/10/10 04:51:10;;;;;;;16.33;6.50;;;;;;;4.06;100.00;101325.66;5274570;28;20035;-70
2022/10/10 04:53:40;;;;;;;13.95;6.88;;;;;;;4.02;100.00;101321.56;5284870;28;20034;-71
2022/10/10 04:56:10;;;;;;;14.52;6.20;;;;;;;3.97;100.00;101321.06;5285058;28;20075;-70
2022/10/10 04:58:41;;;;;;;12.07;6.55;;;;;;;3.94;100.00;101318.59;5267429;28;20367;-71
2022/10/10 05:01:11;;;;;;;16.60;7.45;;;;;;;3.94;100.00;101329.22;5279180;28;20028;-71
2022/10/10 05:03:42;;;;;;;13.48;7.22;;;;;;;3.94;100.00;101326.56;5266603;28;20055;-72
2022/10/10 05:06:12;;;;;;;15.82;6.93;;;;;;;3.98;100.00;101334.19;5281910;28;20035;-70
2022/10/10 05:08:43;;;;;;;13.10;6.65;;;;;;;4.00;100.00;101326.13;5282371;28;20512;-70
2022/10/10 05:11:13;;;;;;;12.25;6.35;;;;;;;3.97;100.00;101332.50;5283745;28;20055;-70
2022/10/10 05:13:44;;;;;;;13.85;6.28;;;;;;;3.94;100.00;101326.56;5281706;28;20067;-71
2022/10/10 05:16:14;;;;;;;12.15;6.47;;;;;;;3.92;100.00;101329.34;5282179;28;20019;-71
2022/10/10 05:18:45;;;;;;;14.27;7.32;;;;;;;3.89;100.00;101326.91;5268791;28;20024;-70
2022/10/10 05:21:16;;;;;;;13.90;5.80;;;;;;;3.86;100.00;101325.31;5285483;28;20098;-70
2022/10/10 05:23:46;;;;;;;14.18;6.03;;;;;;;3.81;100.00;101327.44;5290191;28;20481;-70
2022/10/10 05:26:18;;;;;;;11.90;6.80;;;;;;;3.84;100.00;101324.56;5284434;28;20020;-70
2022/10/10 05:28:49;;;;;;;10.63;6.15;;;;;;;3.84;100.00;101326.38;5261228;28;20100;-70
2022/10/10 05:31:19;;;;;;;15.43;6.03;;;;;;;3.82;100.00;101323.84;5268403;28;20019;-70
2022/10/10 05:33:50;;;;;;;14.30;6.28;;;;;;;3.79;100.00;101321.41;5281076;28;20016;-70
2022/10/10 05:36:20;;;;;;;12.18;6.20;;;;;;;3.82;100.00;101328.31;5275110;28;20032;-70
2022/10/10 05:38:51;;;;;;;15.18;6.13;;;;;;;3.82;100.00;101323.84;5272557;28;20034;-71
2022/10/10 05:41:21;;;;;;;12.02;6.78;;;;;;;3.87;100.00;101326.19;5249930;28;20485;-70
2022/10/10 05:43:52;;;;;;;11.60;6.55;;;;;;;3.93;100.00;101322.22;5266935;28;20062;-69
2022/10/10 05:46:23;;;;;;;17.52;7.57;;;;;;;3.99;100.00;101325.28;5289318;28;20022;-71
2022/10/10 05:48:54;;;;;;;17.05;6.97;;;;;;;4.00;100.00;101324.31;5271354;28;20055;-71
2022/10/10 05:51:24;;;;;;;17.95;7.30;;;;;;;4.03;100.00;101323.25;5279765;28;20111;-70
2022/10/10 05:53:56;;;;;;;14.55;6.60;;;;;;;4.06;100.00;101326.50;5270605;28;20032;-70
2022/10/10 05:56:26;;;;;;;14.02;6.75;;;;;;;4.08;100.00;101329.06;5280270;28;20103;-70
2022/10/10 05:58:57;;;;;;;13.75;6.57;;;;;;;4.08;100.00;101323.75;5289054;27;20115;-70
2022/10/10 06:01:27;;;;;;;18.73;7.40;;;;;;;4.16;100.00;101329.34;5273870;28;20055;-71
2022/10/10 06:03:58;;;;;;;14.23;7.07;;;;;;;4.27;100.00;101332.06;5258431;28;20582;-71
2022/10/10 06:06:28;;;;;;;16.40;7.47;;;;;;;4.26;100.00;101335.66;5261891;28;20543;-71
2022/10/10 06:08:59;;;;;;;17.13;7.65;;;;;;;4.24;100.00;101336.75;5249117;28;20020;-71
2022/10/10 06:11:29;;;;;;;17.50;7.22;;;;;;;4.28;100.00;101338.22;5267309;28;20348;-71
2022/10/10 06:14:00;;;;;;;16.15;7.30;;;;;;;4.31;100.00;101330.84;5263940;28;20103;-71
2022/10/10 06:16:30;;;;;;;11.98;6.22;;;;;;;4.34;100.00;101335.09;5281200;28;20024;-71
2022/10/10 06:19:32;;;;;;;19.27;8.93;;;;;;;4.43;100.00;101333.59;5276548;27;20560;-70
2022/10/10 06:22:09;;;;;;;17.95;7.40;;;;;;;4.47;100.00;101341.22;5265169;28;20016;-70
2022/10/10 06:24:43;;;;;;;12.95;6.43;;;;;;;4.53;100.00;101334.59;5268984;28;20058;-70
2022/10/10 06:27:30;;;;;;;18.45;6.82;;;;;;;4.57;100.00;101336.91;5261948;28;20042;-71
2022/10/10 06:30:09;;;;;;;14.98;6.10;;;;;;;4.70;100.00;101346.59;5268956;28;20462;-71
2022/10/10 06:32:52;;;;;;;18.70;7.20;;;;;;;4.76;100.00;101348.78;5271110;28;20027;-70
2022/10/10 06:35:26;;;;;;;14.35;8.07;;;;;;;4.80;100.00;101355.56;5269646;28;20377;-71
2022/10/10 06:37:57;;;;;;;15.32;6.05;;;;;;;4.84;100.00;101354.38;5269564;28;20537;-70
2022/10/10 06:40:54;;;;;;;14.18;7.50;;;;;;;5.09;100.00;101363.97;5263286;28;20056;-70
2022/10/10 06:43:50;;;;;;;13.68;7.28;;;;;;;5.23;100.00;101357.59;5266193;28;20110;-71
2022/10/10 06:46:41;;;;;;;18.13;8.15;;;;;;;5.32;100.00;101367.50;5262355;28;20032;-71
2022/10/10 06:49:34;;;;;;;18.05;7.55;;;;;;;5.46;100.00;101373.44;5262193;28;20024;-71
2022/10/10 06:52:26;;;;;;;12.93;6.78;;;;;;;5.72;100.00;101365.19;5272667;28;20358;-72
2022/10/10 06:55:04;;;;;;;17.25;7.82;;;;;;;6.10;100.00;101372.81;5268651;28;20024;-72
2022/10/10 06:57:37;;;;;;;15.65;6.93;;;;;;;6.58;100.00;101379.59;5272532;27;20053;-72
2022/10/10 07:00:31;;;;;;;14.18;6.00;;;;;;;7.30;100.00;101374.31;5280687;28;20023;-72
2022/10/10 07:03:33;;;;;;;13.07;6.47;;;;;;;8.15;100.00;101373.09;5261711;28;20043;-73
2022/10/10 07:06:24;;;;;;;23.67;6.22;;;;;;;8.97;100.00;101378.91;5266181;28;20020;-72
2022/10/10 07:09:32;;;;;;;8.07;4.43;;;;;;;9.56;100.00;101385.00;5265263;28;20023;-72
2022/10/10 07:12:16;;;;;;;12.48;5.18;;;;;;;10.00;100.00;101379.88;5270463;28;20024;-73
2022/10/10 07:15:02;;;;;;;14.27;5.95;;;;;;;10.51;100.00;101378.44;5269726;28;20031;-72
2022/10/10 07:17:49;;;;;;;10.73;4.72;;;;;;;11.43;100.00;101377.97;5263666;28;20234;-73
2022/10/10 07:20:30;;;;;;;14.18;5.20;;;;;;;11.82;100.00;101373.00;5265395;28;20024;-73
2022/10/10 07:23:10;;;;;;;8.55;4.10;;;;;;;12.18;100.00;101373.63;5275923;28;20093;-73
2022/10/10 07:26:19;;;;;;;13.05;4.20;;;;;;;12.51;100.00;101379.09;5270046;28;20034;-73
2022/10/10 07:29:02;;;;;;;10.63;4.72;;;;;;;12.80;100.00;101384.00;5272545;28;20064;-71
2022/10/10 07:31:59;;;;;;;10.18;5.13;;;;;;;13.13;100.00;101386.66;5265754;28;20028;-70
2022/10/10 07:34:51;;;;;;;13.45;4.93;;;;;;;13.23;100.00;101397.31;5267795;28;20430;-71
2022/10/10 07:37:25;;;;;;;12.23;4.88;;;;;;;13.24;100.00;101399.81;5265117;28;20514;-72
2022/10/10 07:40:19;;;;;;;12.55;4.97;;;;;;;13.19;100.00;101399.47;5269160;28;20435;-70
2022/10/10 07:42:54;;;;;;;11.10;5.00;;;;;;;13.05;100.00;101392.94;5267372;28;20026;-71
2022/10/10 07:45:38;;;;;;;13.30;5.43;;;;;;;13.54;100.00;101394.72;5272840;27;20098;-70
2022/10/10 07:48:32;;;;;;;15.55;4.72;;;;;;;14.17;100.00;101396.53;5270850;28;20073;-71
2022/10/10 07:51:11;;;;;;;13.82;5.13;;;;;;;14.47;100.00;101408.31;5274899;28;20015;-70
2022/10/10 07:54:13;;;;;;;11.50;4.85;;;;;;;14.05;100.00;101404.13;5274094;28;20113;-71
2022/10/10 07:57:02;;;;;;;13.82;4.95;;;;;;;14.06;100.00;101400.44;5273847;28;20026;-70
2022/10/10 08:00:12;;;;;;;19.77;5.05;;;;;;;14.34;100.00;101406.19;5262479;28;20030;-71
2022/10/10 08:02:44;;;;;;;11.75;4.32;;;;;;;14.40;100.00;101404.63;5269575;28;20398;-72
2022/10/10 08:05:20;;;;;;;14.77;4.70;;;;;;;14.16;100.00;101406.47;5276236;28;20023;-72
2022/10/10 08:08:07;;;;;;;15.82;5.10;;;;;;;14.18;100.00;101404.44;5271737;28;20031;-72
2022/10/10 08:10:53;;;;;;;13.63;4.68;;;;;;;14.67;100.00;101403.34;5272552;28;20019;-72
2022/10/10 08:13:47;;;;;;;14.02;4.78;;;;;;;15.11;100.00;101402.63;5274881;28;20042;-72
2022/10/10 08:16:33;;;;;;;9.65;4.15;;;;;;;15.27;100.00;101403.34;5270887;28;20024;-73
2022/10/10 08:19:14;;;;;;;9.23;4.07;;;;;;;15.67;100.00;101406.69;5267080;28;20075;-70
2022/10/10 08:21:45;;;;;;;13.63;4.10;;;;;;;16.34;100.00;101415.66;5268396;28;20028;-70
2022/10/10 08:24:22;;;;;;;11.60;4.82;;;;;;;16.62;100.00;101424.75;5267535;28;20032;-70
2022/10/10 08:27:09;;;;;;;13.63;4.53;;;;;;;16.95;100.00;101422.38;5271451;28;20016;-71
2022/10/10 08:29:47;;;;;;;12.05;4.38;;;;;;;16.86;100.00;101426.25;5272071;28;20024;-71
2022/10/10 08:32:39;;;;;;;13.13;4.47;;;;;;;16.58;100.00;101426.16;5268700;28;20442;-74
2022/10/10 08:35:38;;;;;;;12.07;4.03;;;;;;;16.29;100.00;101427.06;5274360;28;20077;-71
2022/10/10 08:38:43;;;;;;;12.43;4.22;;;;;;;16.36;100.00;101419.00;5273522;28;20068;-72
2022/10/10 08:41:42;;;;;;;9.05;3.85;;;;;;;16.45;100.00;101432.25;5267011;28;20082;-72
2022/10/10 08:44:45;;;;;;;12.15;4.30;;;;;;;16.86;100.00;101420.00;5271162;28;20389;-72
2022/10/10 08:48:18;;;;;;;7.88;3.55;;;;;;;17.65;100.00;101428.78;5267081;27;20027;-72
2022/10/10 08:51:19;;;;;;;11.10;3.95;;;;;;;17.99;100.00;101421.72;5264303;28;20599;-72
2022/10/10 08:54:18;;;;;;;18.80;3.83;;;;;;;18.27;100.00;101436.06;5272891;28;20435;-73
2022/10/10 08:57:07;;;;;;;9.00;3.25;;;;;;;18.46;100.00;101441.75;5256550;28;20028;-72
2022/10/10 08:59:55;;;;;;;11.85;3.65;;;;;;;18.31;100.00;101433.75;5255203;28;20448;-71
2022/10/10 09:02:59;;;;;;;13.48;4.15;;;;;;;17.68;100.00;101436.53;5265200;28;20039;-72
2022/10/10 09:06:06;;;;;;;9.43;3.88;;;;;;;17.31;100.00;101441.25;5254127;28;20028;-72
2022/10/10 09:09:15;;;;;;;14.98;4.65;;;;;;;16.97;100.00;101454.75;5265080;28;20035;-71
2022/10/10 09:12:33;;;;;;;9.88;4.45;;;;;;;16.90;100.00;101453.81;5266118;28;20035;-72
2022/10/10 09:15:32;;;;;;;10.75;3.97;;;;;;;16.66;100.00;101447.69;5260120;27;20429;-72
2022/10/10 09:18:51;;;;;;;15.43;4.20;;;;;;;16.42;100.00;101450.75;5268250;28;20032;-72
2022/10/10 09:21:55;;;;;;;8.40;3.72;;;;;;;16.23;100.00;101447.63;5262191;28;20043;-72
2022/10/10 09:25:20;;;;;;;11.90;4.05;;;;;;;16.23;100.00;101458.44;5272165;27;20517;-73
2022/10/10 09:28:28;;;;;;;13.85;4.35;;;;;;;16.11;100.00;101454.50;5262855;28;20024;-72
2022/10/10 09:31:31;;;;;;;16.83;4.07;;;;;;;15.82;100.00;101457.25;5262181;28;20028;-72
2022/10/10 09:34:24;;;;;;;20.02;4.38;;;;;;;16.17;100.00;101467.31;5261163;28;20024;-72
2022/10/10 09:37:32;;;;;;;12.50;4.38;;;;;;;16.49;100.00;101476.03;5262552;28;20404;-72
2022/10/10 09:40:48;;;;;;;9.98;3.97;;;;;;;16.44;100.00;101476.63;5264123;28;20111;-72
2022/10/10 09:43:43;;;;;;;12.75;4.32;;;;;;;16.60;100.00;101478.25;5274911;28;20343;-73
2022/10/10 09:46:31;;;;;;;20.63;8.90;;;;;;;16.84;100.00;101466.25;5263783;28;20168;-73
2022/10/10 09:49:32;;;;;;;14.15;4.25;;;;;;;17.12;100.00;101471.78;5268519;28;20024;-73
2022/10/10 09:52:39;;;;;;;13.50;4.43;;;;;;;17.38;100.00;101482.00;5263612;28;20089;-73
2022/10/10 09:55:52;;;;;;;11.68;4.03;;;;;;;17.50;100.00;101479.59;5263290;28;20026;-73
2022/10/10 09:59:04;;;;;;;13.55;4.18;;;;;;;17.66;100.00;101484.72;5275770;28;20035;-73
2022/10/10 10:01:39;;;;;;;13.82;3.88;;;;;;;17.73;100.00;101482.09;5265791;28;20070;-73
2022/10/10 10:04:22;;;;;;;16.08;3.70;;;;;;;17.80;100.00;101496.53;5274504;28;20110;-73
2022/10/10 10:07:24;;;;;;;11.70;4.30;;;;;;;18.05;100.00;101496.91;5273051;28;20378;-72
2022/10/10 10:10:34;;;;;;;10.07;3.75;;;;;;;18.31;100.00;101490.78;5268108;28;20031;-73
2022/10/10 10:13:37;;;;;;;11.35;3.85;;;;;;;18.42;100.00;101487.50;5267763;28;20055;-72
2022/10/10 10:16:46;;;;;;;17.42;3.88;;;;;;;18.51;100.00;101483.56;5276085;28;20019;-73
2022/10/10 10:19:46;;;;;;;13.77;4.05;;;;;;;18.56;100.00;101485.69;5270084;28;20068;-73
2022/10/10 10:22:48;;;;;;;10.57;3.60;;;;;;;18.86;100.00;101489.78;5274523;28;20690;-73
2022/10/10 10:25:38;;;;;;;11.45;3.80;;;;;;;19.31;100.00;101492.78;5270215;28;20019;-73
2022/10/10 10:28:50;;;;;;;13.18;4.05;;;;;;;19.41;100.00;101493.19;5270118;28;20047;-73
2022/10/10 10:32:14;;;;;;;9.80;3.55;;;;;;;19.64;100.00;101491.97;5271651;28;20059;-73
2022/10/10 10:35:33;;;;;;;13.15;3.60;;;;;;;19.72;100.00;101499.06;5262561;28;20031;-73
2022/10/10 10:38:43;;;;;;;12.30;3.05;;;;;;;19.86;100.00;101498.84;5274798;28;20023;-73
2022/10/10 10:41:52;;;;;;;13.65;3.90;;;;;;;19.89;100.00;101506.63;5271421;28;20081;-73
2022/10/10 10:45:36;;;;;;;;;;;;;;;;;;;;;
2022/10/10 10:48:50;;;;;;;17.95;4.20;;;;;;;20.21;100.00;101495.00;5270849;28;20023;-73
2022/10/10 10:52:02;;;;;;;16.58;3.60;;;;;;;20.50;100.00;101490.97;5276054;28;20039;-73
2022/10/10 10:54:46;;;;;;;15.98;3.45;;;;;;;20.80;100.00;101499.41;5277979;28;20085;-73
2022/10/10 10:58:00;;;;;;;14.63;3.35;;;;;;;20.47;100.00;101499.56;5273264;28;20070;-73
2022/10/10 11:01:28;;;;;;;11.75;3.38;;;;;;;20.11;100.00;101500.91;5273485;28;20016;-73
2022/10/10 11:04:55;;;;;;;23.30;3.88;;;;;;;19.73;100.00;101507.06;5259323;28;20525;-73
2022/10/10 11:07:39;;;;;;;;;;;;;;;19.64;100.00;101505.59;5272866;28;20028;-73
2022/10/10 11:10:46;;;;;;;36.90;19.02;;;;;;;19.67;100.00;101518.75;5269825;28;19916;-73
2022/10/10 11:13:35;;;;;;;17.02;4.13;;;;;;;19.64;100.00;101524.66;5272106;28;20548;-73
2022/10/10 11:16:33;;;;;;;29.17;12.23;;;;;;;19.95;100.00;101520.44;5268570;28;20477;-73
2022/10/10 11:19:25;;;;;;;13.38;4.13;;;;;;;20.32;100.00;101508.81;5263413;28;20027;-73
2022/10/10 11:22:34;;;;;;;13.75;3.70;;;;;;;20.74;100.00;101509.31;5271831;28;20480;-73
2022/10/10 11:25:48;;;;;;;8.45;2.72;;;;;;;20.88;100.00;101512.78;5276110;28;20476;-73
2022/10/10 11:29:14;;;;;;;;;;;;;;;;;;;;;
2022/10/10 11:32:18;;;;;;;9.63;3.20;;;;;;;20.20;100.00;101515.13;5263510;28;20035;-73
2022/10/10 11:35:34;;;;;;;13.43;7.97;;;;;;;20.14;100.00;101525.00;5268470;28;20096;-74
2022/10/10 11:38:48;;;;;;;19.52;9.07;;;;;;;20.09;100.00;101530.25;5271478;28;20040;-73
2022/10/10 11:41:43;;;;;;;12.32;3.83;;;;;;;20.06;100.00;101527.94;5265841;28;20490;-73
2022/10/10 11:44:29;;;;;;;12.73;2.80;;;;;;;20.07;100.00;101522.28;5268877;28;20036;-73
2022/10/10 11:47:39;;;;;;;7.57;2.92;;;;;;;19.99;100.00;101532.56;5272423;28;20027;-74
2022/10/10 11:50:53;;;;;;;12.43;4.78;;;;;;;19.89;100.00;101528.41;5271900;28;20024;-73
2022/10/10 11:53:54;;;;;;;11.52;3.15;;;;;;;20.02;100.00;101537.59;5269023;28;20035;-73
2022/10/10 11:56:55;;;;;;;27.45;4.97;;;;;;;20.04;100.00;101535.50;5271378;28;20051;-72
2022/10/10 11:59:59;;;;;;;12.05;3.55;;;;;;;20.09;100.00;101541.16;5273317;28;20074;-71
2022/10/10 12:02:57;;;;;;;9.50;2.63;;;;;;;20.10;100.00;101546.38;5258375;28;20039;-71
2022/10/10 12:06:01;;;;;;;8.77;2.88;;;;;;;19.99;100.00;101536.13;5268943;28;20032;-71
2022/10/10 12:09:03;;;;;;;9.30;2.72;;;;;;;19.92;100.00;101533.41;5271275;28;20071;-73
2022/10/10 12:12:19;;;;;;;11.93;2.90;;;;;;;19.67;100.00;101540.53;5272400;28;20111;-71
2022/10/10 12:15:02;;;;;;;9.05;2.28;;;;;;;19.57;100.00;101551.81;5262258;28;20445;-72
2022/10/10 12:17:59;;;;;;;13.82;3.00;;;;;;;19.53;100.00;101558.75;5271740;28;20022;-72
2022/10/10 12:21:05;;;;;;;7.80;3.03;;;;;;;19.50;100.00;101558.31;5264670;28;20043;-71
2022/10/10 12:23:50;;;;;;;15.73;2.90;;;;;;;19.28;100.00;101555.78;5270209;28;20020;-72
2022/10/10 12:26:45;;;;;;;;;;;;;;;19.30;100.00;101558.28;5268376;28;20056;-71
2022/10/10 12:29:46;;;;;;;10.43;2.80;;;;;;;19.25;100.00;101558.91;5267761;28;19958;-71
2022/10/10 12:32:49;;;;;;;8.77;3.70;;;;;;;19.33;100.00;101560.59;5279510;28;20016;-71
2022/10/10 12:35:46;;;;;;;8.85;3.20;;;;;;;19.31;100.00;101563.50;5276204;28;20434;-71
2022/10/10 12:38:21;;;;;;;11.80;3.35;;;;;;;19.26;100.00;101565.16;5263436;28;20103;-71
2022/10/10 12:41:24;;;;;;;14.32;3.63;;;;;;;19.24;100.00;101561.81;5269249;28;20411;-71